Airfield :
LOGIN :

Register | Disclaimer

   EN    FR    IT 

 










Legend :    VFR   Marginal VFR   IFR   Intensive IFR   Very Intensive IFR
Visi :
Ceiling :
>= 8 km
>= 3000ft
5 to 8 km
1000 to 3000 ft
1500m to 5 km
500 to 1000 ft
800 to 1500m
200 to 500 ft
< 800m
< 200 ft
Symbols :   Thunderstorms  Fog  Heavy snow  Heavy precipitations  Wind > 20 kt
SIGMETs :     Misc.  Thunderstorms  Icing  Turbulence  Mountain Waves  Volcanic Ashes






- Airport Elevation : 648 ft
- IATA code : INI


LYNI - Nis Constantine

CURRENT METAR :
  • 070100Z 27003KT 220V310 CAVOK 08/M14 Q1031 NOSIG

EXPIRED METARs :
  • 070030Z 08010KT CAVOK 09/M14 Q1031 NOSIG
  • 070000Z 07012KT CAVOK 09/M14 Q1031 NOSIG
  • 062330Z 07008KT CAVOK 09/M13 Q1031 NOSIG
  • 062300Z 06010KT CAVOK 10/M13 Q1031 NOSIG
  • 062230Z 02004KT 300V050 CAVOK 10/M12 Q1031 NOSIG

TAF TAF LYNI
Valid from the 07 at 00:00 until the 08 at 00:00 UTC


062300Z 0700/0724 02005KT CAVOK TX18/0713Z TN03/0704Z
TEMPO 0710/0719 05015KT



MET'MAP, your aeronautical weather chart ! - Copyright ORBIFLY December 2007 - Disclaimer

ORBIFLY MET'MAP TEAM :

Programming & Development : Alexandra Zaïnal
Concept & original design : Baudouin d'Aumeries
Assistance for programming : Marc-Olivier Méhu
Technical & hardware support : Manuel Goepfert

Contact : metmap@orbifly.com




SOURCES & CREDITS :

   NOAA